sensor_id;sensor_type;location;lat;lon;timestamp;pressure;altitude;pressure_sealevel;temperature;humidity
59168;BME280;44948;55.046;73.266;2023-03-04T00:01:10;100096.56;;;-14.84;76.24
59168;BME280;44948;55.046;73.266;2023-03-04T00:04:12;100097.69;;;-14.74;76.06
59168;BME280;44948;55.046;73.266;2023-03-04T00:07:21;100091.88;;;-14.72;76.04
59168;BME280;44948;55.046;73.266;2023-03-04T00:10:29;100094.38;;;-14.73;76.03
59168;BME280;44948;55.046;73.266;2023-03-04T00:13:31;100101.09;;;-14.72;75.92
59168;BME280;44948;55.046;73.266;2023-03-04T00:16:34;100084.81;;;-14.85;75.88
59168;BME280;44948;55.046;73.266;2023-03-04T00:19:40;100107.78;;;-14.74;75.88
59168;BME280;44948;55.046;73.266;2023-03-04T00:22:43;100117.91;;;-14.71;75.44
59168;BME280;44948;55.046;73.266;2023-03-04T00:25:46;100117.91;;;-14.71;75.72
59168;BME280;44948;55.046;73.266;2023-03-04T00:28:58;100123.66;;;-14.77;75.49
59168;BME280;44948;55.046;73.266;2023-03-04T00:32:10;100123.38;;;-14.86;75.47
59168;BME280;44948;55.046;73.266;2023-03-04T00:35:13;100129.25;;;-14.85;75.54
59168;BME280;44948;55.046;73.266;2023-03-04T00:38:15;100134.28;;;-14.85;75.45
59168;BME280;44948;55.046;73.266;2023-03-04T00:41:23;100137.69;;;-14.83;75.57
59168;BME280;44948;55.046;73.266;2023-03-04T00:44:26;100145.97;;;-14.87;75.17
59168;BME280;44948;55.046;73.266;2023-03-04T00:47:33;100143.19;;;-14.97;75.07
59168;BME280;44948;55.046;73.266;2023-03-04T00:50:36;100154.91;;;-14.97;75.45
59168;BME280;44948;55.046;73.266;2023-03-04T00:53:38;100153.88;;;-15.04;75.18
59168;BME280;44948;55.046;73.266;2023-03-04T00:56:51;100151.19;;;-15.10;75.17
59168;BME280;44948;55.046;73.266;2023-03-04T00:59:59;100135.72;;;-15.22;75.59
59168;BME280;44948;55.046;73.266;2023-03-04T01:03:02;100154.41;;;-15.14;75.40
59168;BME280;44948;55.046;73.266;2023-03-04T01:06:04;100155.22;;;-15.15;75.45
59168;BME280;44948;55.046;73.266;2023-03-04T01:09:07;100156.56;;;-15.26;75.45
59168;BME280;44948;55.046;73.266;2023-03-04T01:12:10;100155.72;;;-15.26;75.57
59168;BME280;44948;55.046;73.266;2023-03-04T01:15:14;100153.25;;;-15.25;75.52
59168;BME280;44948;55.046;73.266;2023-03-04T01:18:16;100162.41;;;-15.27;75.88
59168;BME280;44948;55.046;73.266;2023-03-04T01:21:19;100155.56;;;-15.31;75.62
59168;BME280;44948;55.046;73.266;2023-03-04T01:24:34;100160.41;;;-15.37;75.62
59168;BME280;44948;55.046;73.266;2023-03-04T01:27:40;100162.91;;;-15.37;76.00
59168;BME280;44948;55.046;73.266;2023-03-04T01:30:42;100155.34;;;-15.39;75.75
59168;BME280;44948;55.046;73.266;2023-03-04T01:33:44;100167.00;;;-15.41;75.81
59168;BME280;44948;55.046;73.266;2023-03-04T01:36:47;100173.69;;;-15.41;76.02
59168;BME280;44948;55.046;73.266;2023-03-04T01:39:49;100154.22;;;-15.48;76.08
59168;BME280;44948;55.046;73.266;2023-03-04T01:42:52;100172.88;;;-15.40;75.95
59168;BME280;44948;55.046;73.266;2023-03-04T01:45:55;100178.72;;;-15.41;75.77
59168;BME280;44948;55.046;73.266;2023-03-04T01:49:13;100189.59;;;-15.42;76.09
59168;BME280;44948;55.046;73.266;2023-03-04T01:52:17;100186.19;;;-15.44;75.94
59168;BME280;44948;55.046;73.266;2023-03-04T01:55:21;100185.41;;;-15.43;75.73
59168;BME280;44948;55.046;73.266;2023-03-04T01:58:34;100169.22;;;-15.51;75.98
59168;BME280;44948;55.046;73.266;2023-03-04T02:01:37;100191.41;;;-15.38;76.25
59168;BME280;44948;55.046;73.266;2023-03-04T02:04:41;100186.09;;;-15.47;76.38
59168;BME280;44948;55.046;73.266;2023-03-04T02:07:44;100174.28;;;-15.50;76.22
59168;BME280;44948;55.046;73.266;2023-03-04T02:10:51;100198.03;;;-15.40;76.48
59168;BME280;44948;55.046;73.266;2023-03-04T02:13:54;100187.25;;;-15.36;76.60
59168;BME280;44948;55.046;73.266;2023-03-04T02:17:02;100188.34;;;-15.28;76.42
59168;BME280;44948;55.046;73.266;2023-03-04T02:23:34;100192.91;;;-15.16;76.62
59168;BME280;44948;55.046;73.266;2023-03-04T02:26:47;100198.44;;;-15.00;76.56
59168;BME280;44948;55.046;73.266;2023-03-04T02:29:49;100202.25;;;-14.85;76.35
59168;BME280;44948;55.046;73.266;2023-03-04T02:32:52;100205.22;;;-14.70;76.15
59168;BME280;44948;55.046;73.266;2023-03-04T02:36:00;100210.69;;;-14.55;75.95
59168;BME280;44948;55.046;73.266;2023-03-04T02:39:36;100203.00;;;-14.29;75.52
59168;BME280;44948;55.046;73.266;2023-03-04T02:42:43;100199.41;;;-14.08;75.29
59168;BME280;44948;55.046;73.266;2023-03-04T02:45:49;100205.84;;;-13.86;74.95
59168;BME280;44948;55.046;73.266;2023-03-04T02:48:52;100196.78;;;-13.78;74.61
59168;BME280;44948;55.046;73.266;2023-03-04T02:52:21;100199.63;;;-13.65;74.29
59168;BME280;44948;55.046;73.266;2023-03-04T02:55:24;100204.50;;;-13.73;74.35
59168;BME280;44948;55.046;73.266;2023-03-04T02:58:31;100206.31;;;-13.67;74.55
59168;BME280;44948;55.046;73.266;2023-03-04T03:01:33;100205.78;;;-13.56;74.54
59168;BME280;44948;55.046;73.266;2023-03-04T03:04:38;100204.03;;;-13.58;74.30
59168;BME280;44948;55.046;73.266;2023-03-04T03:07:44;100193.03;;;-13.60;74.13
59168;BME280;44948;55.046;73.266;2023-03-04T03:10:47;100211.09;;;-13.43;74.19
59168;BME280;44948;55.046;73.266;2023-03-04T03:13:55;100189.94;;;-13.50;74.14
59168;BME280;44948;55.046;73.266;2023-03-04T03:17:01;100201.75;;;-13.48;73.88
59168;BME280;44948;55.046;73.266;2023-03-04T03:20:14;100227.56;;;-13.25;73.71
59168;BME280;44948;55.046;73.266;2023-03-04T03:23:17;100181.66;;;-13.45;73.69
59168;BME280;44948;55.046;73.266;2023-03-04T03:26:20;100236.41;;;-13.07;73.85
59168;BME280;44948;55.046;73.266;2023-03-04T03:29:22;100237.53;;;-12.93;73.69
59168;BME280;44948;55.046;73.266;2023-03-04T03:32:25;100236.81;;;-12.89;73.38
59168;BME280;44948;55.046;73.266;2023-03-04T03:35:35;100236.75;;;-12.92;73.67
59168;BME280;44948;55.046;73.266;2023-03-04T03:38:38;100241.81;;;-12.92;73.40
59168;BME280;44948;55.046;73.266;2023-03-04T03:41:41;100244.31;;;-12.92;73.61
59168;BME280;44948;55.046;73.266;2023-03-04T03:44:43;100246.75;;;-12.95;73.74
59168;BME280;44948;55.046;73.266;2023-03-04T03:47:46;100245.53;;;-12.75;74.27
59168;BME280;44948;55.046;73.266;2023-03-04T03:50:53;100245.47;;;-12.76;73.83
59168;BME280;44948;55.046;73.266;2023-03-04T03:53:55;100256.91;;;-12.55;73.90
59168;BME280;44948;55.046;73.266;2023-03-04T03:56:57;100261.66;;;-12.29;74.08
59168;BME280;44948;55.046;73.266;2023-03-04T04:00:06;100256.28;;;-12.05;73.70
59168;BME280;44948;55.046;73.266;2023-03-04T04:03:24;100258.78;;;-12.07;73.57
59168;BME280;44948;55.046;73.266;2023-03-04T04:06:26;100263.09;;;-12.01;73.63
59168;BME280;44948;55.046;73.266;2023-03-04T04:09:34;100264.47;;;-11.75;73.52
59168;BME280;44948;55.046;73.266;2023-03-04T04:12:41;100257.28;;;-11.52;73.18
59168;BME280;44948;55.046;73.266;2023-03-04T04:15:44;100255.06;;;-11.34;72.74
59168;BME280;44948;55.046;73.266;2023-03-04T04:18:54;100265.41;;;-11.20;72.68
59168;BME280;44948;55.046;73.266;2023-03-04T04:22:02;100268.28;;;-10.97;72.82
59168;BME280;44948;55.046;73.266;2023-03-04T04:25:05;100250.69;;;-10.89;72.43
59168;BME280;44948;55.046;73.266;2023-03-04T04:28:09;100243.47;;;-10.62;72.42
59168;BME280;44948;55.046;73.266;2023-03-04T04:31:11;100268.09;;;-10.56;72.19
59168;BME280;44948;55.046;73.266;2023-03-04T04:34:14;100266.44;;;-10.51;71.93
59168;BME280;44948;55.046;73.266;2023-03-04T04:37:16;100268.19;;;-10.49;71.82
59168;BME280;44948;55.046;73.266;2023-03-04T04:40:29;100270.09;;;-10.31;71.87
59168;BME280;44948;55.046;73.266;2023-03-04T04:43:37;100271.13;;;-10.18;71.98
59168;BME280;44948;55.046;73.266;2023-03-04T04:46:40;100271.34;;;-10.00;71.59
59168;BME280;44948;55.046;73.266;2023-03-04T04:49:43;100267.31;;;-9.86;71.16
59168;BME280;44948;55.046;73.266;2023-03-04T04:52:50;100268.22;;;-9.79;71.27
59168;BME280;44948;55.046;73.266;2023-03-04T04:56:15;100280.28;;;-9.57;70.90
59168;BME280;44948;55.046;73.266;2023-03-04T04:59:18;100279.81;;;-9.19;71.02
59168;BME280;44948;55.046;73.266;2023-03-04T05:02:30;100280.88;;;-8.91;70.11
59168;BME280;44948;55.046;73.266;2023-03-04T05:05:47;100289.41;;;-8.88;69.72
59168;BME280;44948;55.046;73.266;2023-03-04T05:09:00;100281.66;;;-9.01;69.87
59168;BME280;44948;55.046;73.266;2023-03-04T05:12:12;100291.16;;;-8.77;70.16
59168;BME280;44948;55.046;73.266;2023-03-04T05:15:19;100299.94;;;-8.37;69.63
59168;BME280;44948;55.046;73.266;2023-03-04T05:18:23;100304.31;;;-8.06;68.70
59168;BME280;44948;55.046;73.266;2023-03-04T05:21:26;100296.81;;;-7.86;68.10
59168;BME280;44948;55.046;73.266;2023-03-04T05:24:30;100302.75;;;-7.81;67.57
59168;BME280;44948;55.046;73.266;2023-03-04T05:27:33;100295.91;;;-7.94;67.40
59168;BME280;44948;55.046;73.266;2023-03-04T05:30:35;100305.31;;;-7.84;67.84
59168;BME280;44948;55.046;73.266;2023-03-04T05:33:38;100307.06;;;-7.69;67.52
59168;BME280;44948;55.046;73.266;2023-03-04T05:36:44;100301.75;;;-8.16;67.25
59168;BME280;44948;55.046;73.266;2023-03-04T05:39:47;100306.09;;;-7.91;67.95
59168;BME280;44948;55.046;73.266;2023-03-04T05:42:50;100299.31;;;-7.92;67.33
59168;BME280;44948;55.046;73.266;2023-03-04T05:45:57;100307.88;;;-7.75;68.09
59168;BME280;44948;55.046;73.266;2023-03-04T05:48:59;100285.03;;;-7.50;67.14
59168;BME280;44948;55.046;73.266;2023-03-04T05:52:01;100291.91;;;-7.14;67.09
59168;BME280;44948;55.046;73.266;2023-03-04T05:55:09;100303.78;;;-6.80;66.00
59168;BME280;44948;55.046;73.266;2023-03-04T05:58:12;100296.09;;;-6.41;65.24
59168;BME280;44948;55.046;73.266;2023-03-04T06:01:15;100293.47;;;-6.05;64.38
59168;BME280;44948;55.046;73.266;2023-03-04T06:04:27;100294.22;;;-5.78;63.55
59168;BME280;44948;55.046;73.266;2023-03-04T06:07:30;100290.75;;;-5.59;62.87
59168;BME280;44948;55.046;73.266;2023-03-04T06:10:32;100283.81;;;-5.34;62.76
59168;BME280;44948;55.046;73.266;2023-03-04T06:13:35;100287.28;;;-5.46;62.01
59168;BME280;44948;55.046;73.266;2023-03-04T06:16:39;100286.34;;;-5.37;62.80
59168;BME280;44948;55.046;73.266;2023-03-04T06:19:54;100284.69;;;-5.44;62.52
59168;BME280;44948;55.046;73.266;2023-03-04T06:23:01;100282.19;;;-5.49;62.41
59168;BME280;44948;55.046;73.266;2023-03-04T06:26:13;100279.72;;;-5.72;62.97
59168;BME280;44948;55.046;73.266;2023-03-04T06:29:19;100285.81;;;-6.09;63.81
59168;BME280;44948;55.046;73.266;2023-03-04T06:32:21;100280.69;;;-5.99;64.22
59168;BME280;44948;55.046;73.266;2023-03-04T06:35:24;100278.94;;;-5.85;63.87
59168;BME280;44948;55.046;73.266;2023-03-04T06:38:26;100282.34;;;-5.89;63.56
59168;BME280;44948;55.046;73.266;2023-03-04T06:41:29;100269.59;;;-5.95;64.08
59168;BME280;44948;55.046;73.266;2023-03-04T06:44:37;100285.84;;;-6.11;64.39
59168;BME280;44948;55.046;73.266;2023-03-04T06:47:49;100290.84;;;-5.80;64.45
59168;BME280;44948;55.046;73.266;2023-03-04T06:50:52;100279.84;;;-5.98;64.65
59168;BME280;44948;55.046;73.266;2023-03-04T06:53:55;100276.34;;;-5.78;64.95
59168;BME280;44948;55.046;73.266;2023-03-04T06:56:58;100276.47;;;-6.10;65.22
59168;BME280;44948;55.046;73.266;2023-03-04T07:00:00;100277.25;;;-5.86;65.66
59168;BME280;44948;55.046;73.266;2023-03-04T07:03:04;100279.78;;;-5.89;65.54
59168;BME280;44948;55.046;73.266;2023-03-04T07:06:14;100273.91;;;-6.09;65.72
59168;BME280;44948;55.046;73.266;2023-03-04T07:09:22;100269.69;;;-6.24;66.76
59168;BME280;44948;55.046;73.266;2023-03-04T07:12:25;100285.03;;;-6.21;67.63
59168;BME280;44948;55.046;73.266;2023-03-04T07:15:27;100285.84;;;-6.23;67.84
59168;BME280;44948;55.046;73.266;2023-03-04T07:18:36;100273.97;;;-6.18;67.99
59168;BME280;44948;55.046;73.266;2023-03-04T07:21:39;100276.47;;;-6.13;67.69
59168;BME280;44948;55.046;73.266;2023-03-04T07:24:46;100275.63;;;-6.14;68.12
59168;BME280;44948;55.046;73.266;2023-03-04T07:27:49;100289.31;;;-6.33;68.21
59168;BME280;44948;55.046;73.266;2023-03-04T07:31:04;100290.19;;;-6.65;68.74
59168;BME280;44948;55.046;73.266;2023-03-04T07:34:18;100282.53;;;-6.59;69.20
59168;BME280;44948;55.046;73.266;2023-03-04T07:37:24;100284.19;;;-6.41;69.36
59168;BME280;44948;55.046;73.266;2023-03-04T07:40:27;100281.59;;;-6.13;69.04
59168;BME280;44948;55.046;73.266;2023-03-04T07:43:34;100275.66;;;-6.29;68.58
59168;BME280;44948;55.046;73.266;2023-03-04T07:46:36;100282.50;;;-6.34;69.11
59168;BME280;44948;55.046;73.266;2023-03-04T07:49:42;100241.66;;;-6.34;69.31
59168;BME280;44948;55.046;73.266;2023-03-04T07:52:47;100257.75;;;-6.12;68.64
59168;BME280;44948;55.046;73.266;2023-03-04T07:55:56;100281.50;;;-5.85;68.58
59168;BME280;44948;55.046;73.266;2023-03-04T07:59:03;100272.13;;;-5.86;68.41
59168;BME280;44948;55.046;73.266;2023-03-04T08:02:19;100288.19;;;-5.61;67.98
59168;BME280;44948;55.046;73.266;2023-03-04T08:05:21;100260.06;;;-5.56;67.81
59168;BME280;44948;55.046;73.266;2023-03-04T08:08:23;100276.19;;;-5.45;67.61
59168;BME280;44948;55.046;73.266;2023-03-04T08:11:36;100282.91;;;-5.30;67.76
59168;BME280;44948;55.046;73.266;2023-03-04T08:14:49;100278.59;;;-5.17;67.71
59168;BME280;44948;55.046;73.266;2023-03-04T08:17:52;100275.09;;;-5.09;67.34
59168;BME280;44948;55.046;73.266;2023-03-04T08:21:00;100278.22;;;-4.72;67.08
59168;BME280;44948;55.046;73.266;2023-03-04T08:24:09;100267.63;;;-4.34;66.54
59168;BME280;44948;55.046;73.266;2023-03-04T08:27:12;100275.97;;;-4.15;66.01
59168;BME280;44948;55.046;73.266;2023-03-04T08:30:15;100297.81;;;-3.83;65.68
59168;BME280;44948;55.046;73.266;2023-03-04T08:33:17;100285.91;;;-3.87;65.56
59168;BME280;44948;55.046;73.266;2023-03-04T08:36:20;100302.97;;;-3.86;65.26
59168;BME280;44948;55.046;73.266;2023-03-04T08:39:27;100298.88;;;-4.03;65.50
59168;BME280;44948;55.046;73.266;2023-03-04T08:42:34;100291.34;;;-4.15;65.92
59168;BME280;44948;55.046;73.266;2023-03-04T08:45:37;100288.91;;;-4.28;66.34
59168;BME280;44948;55.046;73.266;2023-03-04T08:48:47;100287.19;;;-4.26;66.73
59168;BME280;44948;55.046;73.266;2023-03-04T08:51:50;100277.66;;;-4.14;66.69
59168;BME280;44948;55.046;73.266;2023-03-04T08:54:52;100279.34;;;-4.11;66.71
59168;BME280;44948;55.046;73.266;2023-03-04T08:58:00;100280.13;;;-4.06;66.95
59168;BME280;44948;55.046;73.266;2023-03-04T09:01:03;100276.69;;;-4.04;66.36
59168;BME280;44948;55.046;73.266;2023-03-04T09:04:15;100277.63;;;-4.11;67.19
59168;BME280;44948;55.046;73.266;2023-03-04T09:07:24;100279.44;;;-4.19;67.63
59168;BME280;44948;55.046;73.266;2023-03-04T09:10:36;100286.03;;;-3.98;67.67
59168;BME280;44948;55.046;73.266;2023-03-04T09:13:39;100285.00;;;-3.82;67.51
59168;BME280;44948;55.046;73.266;2023-03-04T09:16:42;100290.91;;;-3.78;67.38
59168;BME280;44948;55.046;73.266;2023-03-04T09:19:54;100293.63;;;-3.90;67.57
59168;BME280;44948;55.046;73.266;2023-03-04T09:22:57;100285.16;;;-3.97;68.20
59168;BME280;44948;55.046;73.266;2023-03-04T09:26:00;100292.66;;;-3.80;68.13
59168;BME280;44948;55.046;73.266;2023-03-04T09:29:02;100285.03;;;-3.85;68.03
59168;BME280;44948;55.046;73.266;2023-03-04T09:32:05;100286.00;;;-3.96;68.12
59168;BME280;44948;55.046;73.266;2023-03-04T09:35:12;100292.78;;;-3.92;68.42
59168;BME280;44948;55.046;73.266;2023-03-04T09:38:15;100295.44;;;-3.98;68.58
59168;BME280;44948;55.046;73.266;2023-03-04T09:41:23;100290.19;;;-3.89;69.01
59168;BME280;44948;55.046;73.266;2023-03-04T09:44:35;100280.84;;;-3.93;68.75
59168;BME280;44948;55.046;73.266;2023-03-04T09:47:38;100292.69;;;-3.83;68.77
59168;BME280;44948;55.046;73.266;2023-03-04T09:50:47;100276.69;;;-4.05;68.94
59168;BME280;44948;55.046;73.266;2023-03-04T09:54:05;100279.59;;;-4.37;69.33
59168;BME280;44948;55.046;73.266;2023-03-04T09:57:28;100292.22;;;-4.17;69.10
59168;BME280;44948;55.046;73.266;2023-03-04T10:00:57;100299.94;;;-4.19;69.05
59168;BME280;44948;55.046;73.266;2023-03-04T10:04:17;100294.84;;;-4.25;69.26
59168;BME280;44948;55.046;73.266;2023-03-04T10:07:27;100288.69;;;-4.09;69.41
59168;BME280;44948;55.046;73.266;2023-03-04T10:10:36;100303.16;;;-4.03;69.47
59168;BME280;44948;55.046;73.266;2023-03-04T10:17:40;100289.69;;;-4.19;69.63
59168;BME280;44948;55.046;73.266;2023-03-04T10:21:01;100291.25;;;-4.09;69.67
59168;BME280;44948;55.046;73.266;2023-03-04T10:24:14;100291.38;;;-4.21;69.83
59168;BME280;44948;55.046;73.266;2023-03-04T10:27:19;100287.94;;;-4.17;70.33
59168;BME280;44948;55.046;73.266;2023-03-04T10:30:58;100287.09;;;-4.20;70.29
59168;BME280;44948;55.046;73.266;2023-03-04T10:34:03;100292.09;;;-4.07;70.38
59168;BME280;44948;55.046;73.266;2023-03-04T10:41:29;100293.06;;;-4.17;70.58
59168;BME280;44948;55.046;73.266;2023-03-04T10:44:34;100291.31;;;-4.12;70.67
59168;BME280;44948;55.046;73.266;2023-03-04T10:47:51;100289.66;;;-4.16;70.75
59168;BME280;44948;55.046;73.266;2023-03-04T10:54:31;100281.16;;;-4.21;70.54
59168;BME280;44948;55.046;73.266;2023-03-04T10:57:38;100282.03;;;-4.25;71.49
59168;BME280;44948;55.046;73.266;2023-03-04T11:00:42;100281.06;;;-4.12;71.22
59168;BME280;44948;55.046;73.266;2023-03-04T11:03:48;100292.03;;;-4.00;71.37
59168;BME280;44948;55.046;73.266;2023-03-04T11:06:51;100270.56;;;-3.90;71.26
59168;BME280;44948;55.046;73.266;2023-03-04T11:10:09;100277.19;;;-3.74;71.03
59168;BME280;44948;55.046;73.266;2023-03-04T11:13:19;100284.72;;;-3.60;70.50
59168;BME280;44948;55.046;73.266;2023-03-04T11:16:29;100277.94;;;-3.64;70.53
59168;BME280;44948;55.046;73.266;2023-03-04T11:19:38;100278.66;;;-3.55;70.69
59168;BME280;44948;55.046;73.266;2023-03-04T11:22:45;100275.38;;;-3.64;70.73
59168;BME280;44948;55.046;73.266;2023-03-04T11:25:56;100300.19;;;-3.69;71.04
59168;BME280;44948;55.046;73.266;2023-03-04T11:29:23;100273.22;;;-3.96;71.22
59168;BME280;44948;55.046;73.266;2023-03-04T11:32:37;100294.50;;;-3.91;71.43
59168;BME280;44948;55.046;73.266;2023-03-04T11:35:47;100302.34;;;-4.07;72.07
59168;BME280;44948;55.046;73.266;2023-03-04T11:38:53;100304.84;;;-4.04;72.35
59168;BME280;44948;55.046;73.266;2023-03-04T11:45:14;100301.88;;;-4.45;72.91
59168;BME280;44948;55.046;73.266;2023-03-04T11:55:03;100310.25;;;-4.28;73.02
59168;BME280;44948;55.046;73.266;2023-03-04T11:58:46;100303.34;;;-4.21;73.30
59168;BME280;44948;55.046;73.266;2023-03-04T12:05:16;100303.28;;;-4.14;73.18
59168;BME280;44948;55.046;73.266;2023-03-04T12:11:45;100299.19;;;-4.30;74.36
59168;BME280;44948;55.046;73.266;2023-03-04T12:15:16;100301.78;;;-4.36;74.46
59168;BME280;44948;55.046;73.266;2023-03-04T12:28:24;100301.66;;;-4.22;74.48
59168;BME280;44948;55.046;73.266;2023-03-04T12:31:35;100290.69;;;-4.35;75.20
59168;BME280;44948;55.046;73.266;2023-03-04T12:38:11;100307.03;;;-4.48;75.17
59168;BME280;44948;55.046;73.266;2023-03-04T12:41:38;100300.25;;;-4.55;75.86
59168;BME280;44948;55.046;73.266;2023-03-04T12:48:19;100295.78;;;-4.32;75.38
59168;BME280;44948;55.046;73.266;2023-03-04T12:51:29;100297.38;;;-4.19;75.38
59168;BME280;44948;55.046;73.266;2023-03-04T12:54:40;100299.94;;;-4.22;75.49
59168;BME280;44948;55.046;73.266;2023-03-04T12:57:45;100308.44;;;-4.17;75.46
59168;BME280;44948;55.046;73.266;2023-03-04T13:10:37;100298.94;;;-4.09;75.50
59168;BME280;44948;55.046;73.266;2023-03-04T13:14:44;100306.81;;;-4.25;75.73
59168;BME280;44948;55.046;73.266;2023-03-04T13:17:43;100306.78;;;-4.24;75.65
59168;BME280;44948;55.046;73.266;2023-03-04T13:24:44;100312.88;;;-4.32;76.28
59168;BME280;44948;55.046;73.266;2023-03-04T13:31:15;100318.00;;;-4.37;77.29
59168;BME280;44948;55.046;73.266;2023-03-04T13:34:50;100329.22;;;-4.47;77.04
59168;BME280;44948;55.046;73.266;2023-03-04T13:41:31;100342.66;;;-4.27;77.23
59168;BME280;44948;55.046;73.266;2023-03-04T13:44:55;100335.16;;;-4.44;77.36
59168;BME280;44948;55.046;73.266;2023-03-04T13:47:59;100341.03;;;-4.37;78.04
59168;BME280;44948;55.046;73.266;2023-03-04T13:51:02;100346.22;;;-4.42;77.89
59168;BME280;44948;55.046;73.266;2023-03-04T13:54:34;100345.44;;;-4.48;77.81
59168;BME280;44948;55.046;73.266;2023-03-04T13:57:48;100341.97;;;-4.44;78.14
59168;BME280;44948;55.046;73.266;2023-03-04T14:00:53;100342.75;;;-4.36;77.84
59168;BME280;44948;55.046;73.266;2023-03-04T14:03:59;100340.28;;;-4.47;78.78
59168;BME280;44948;55.046;73.266;2023-03-04T14:07:29;100350.56;;;-4.54;78.57
59168;BME280;44948;55.046;73.266;2023-03-04T14:10:31;100316.50;;;-4.58;78.47
59168;BME280;44948;55.046;73.266;2023-03-04T14:13:39;100341.94;;;-4.41;78.75
59168;BME280;44948;55.046;73.266;2023-03-04T14:19:51;100340.25;;;-4.42;79.06
59168;BME280;44948;55.046;73.266;2023-03-04T14:22:54;100339.38;;;-4.41;78.67
59168;BME280;44948;55.046;73.266;2023-03-04T14:26:09;100351.31;;;-4.40;78.58
59168;BME280;44948;55.046;73.266;2023-03-04T14:29:27;100353.94;;;-4.46;78.48
59168;BME280;44948;55.046;73.266;2023-03-04T14:32:31;100354.84;;;-4.50;78.64
59168;BME280;44948;55.046;73.266;2023-03-04T14:35:34;100361.63;;;-4.46;78.17
59168;BME280;44948;55.046;73.266;2023-03-04T14:39:04;100369.38;;;-4.52;78.27
59168;BME280;44948;55.046;73.266;2023-03-04T14:42:10;100371.00;;;-4.45;78.12
59168;BME280;44948;55.046;73.266;2023-03-04T14:45:24;100376.94;;;-4.43;78.02
59168;BME280;44948;55.046;73.266;2023-03-04T14:48:33;100370.94;;;-4.41;77.44
59168;BME280;44948;55.046;73.266;2023-03-04T14:51:50;100357.44;;;-4.58;77.38
59168;BME280;44948;55.046;73.266;2023-03-04T14:55:23;100383.03;;;-4.58;76.96
59168;BME280;44948;55.046;73.266;2023-03-04T14:58:28;100378.69;;;-4.45;77.05
59168;BME280;44948;55.046;73.266;2023-03-04T15:01:40;100377.84;;;-4.46;77.01
59168;BME280;44948;55.046;73.266;2023-03-04T15:04:43;100372.78;;;-4.52;76.90
59168;BME280;44948;55.046;73.266;2023-03-04T15:07:55;100380.34;;;-4.43;76.57
59168;BME280;44948;55.046;73.266;2023-03-04T15:11:20;100382.03;;;-4.40;76.11
59168;BME280;44948;55.046;73.266;2023-03-04T15:14:45;100388.13;;;-4.52;76.30
59168;BME280;44948;55.046;73.266;2023-03-04T15:17:58;100388.97;;;-4.54;76.37
59168;BME280;44948;55.046;73.266;2023-03-04T15:21:03;100390.66;;;-4.53;76.63
59168;BME280;44948;55.046;73.266;2023-03-04T15:24:09;100378.75;;;-4.51;76.56
59168;BME280;44948;55.046;73.266;2023-03-04T15:27:12;100387.28;;;-4.55;76.47
59168;BME280;44948;55.046;73.266;2023-03-04T15:30:26;100395.81;;;-4.56;76.50
59168;BME280;44948;55.046;73.266;2023-03-04T15:33:29;100392.44;;;-4.58;76.39
59168;BME280;44948;55.046;73.266;2023-03-04T15:36:32;100387.31;;;-4.58;76.33
59168;BME280;44948;55.046;73.266;2023-03-04T15:39:34;100387.28;;;-4.57;76.67
59168;BME280;44948;55.046;73.266;2023-03-04T15:42:36;100388.97;;;-4.54;76.95
59168;BME280;44948;55.046;73.266;2023-03-04T15:45:39;100375.38;;;-4.61;76.81
59168;BME280;44948;55.046;73.266;2023-03-04T15:48:42;100387.25;;;-4.49;76.92
59168;BME280;44948;55.046;73.266;2023-03-04T15:51:54;100378.66;;;-4.42;76.99
59168;BME280;44948;55.046;73.266;2023-03-04T15:54:57;100372.75;;;-4.50;77.20
59168;BME280;44948;55.046;73.266;2023-03-04T15:58:10;100383.84;;;-4.48;77.39
59168;BME280;44948;55.046;73.266;2023-03-04T16:01:15;100375.19;;;-4.38;77.32
59168;BME280;44948;55.046;73.266;2023-03-04T16:04:18;100381.16;;;-4.35;77.32
59168;BME280;44948;55.046;73.266;2023-03-04T16:07:24;100380.28;;;-4.32;77.32
59168;BME280;44948;55.046;73.266;2023-03-04T16:10:34;100377.84;;;-4.47;77.56
59168;BME280;44948;55.046;73.266;2023-03-04T16:13:37;100380.44;;;-4.53;78.27
59168;BME280;44948;55.046;73.266;2023-03-04T16:16:41;100381.28;;;-4.53;78.28
59168;BME280;44948;55.046;73.266;2023-03-04T16:19:45;100384.69;;;-4.49;78.58
59168;BME280;44948;55.046;73.266;2023-03-04T16:22:53;100376.16;;;-4.48;78.39
59168;BME280;44948;55.046;73.266;2023-03-04T16:25:57;100375.44;;;-4.67;78.47
59168;BME280;44948;55.046;73.266;2023-03-04T16:29:04;100384.00;;;-4.76;78.35
59168;BME280;44948;55.046;73.266;2023-03-04T16:32:07;100373.78;;;-4.76;78.35
59168;BME280;44948;55.046;73.266;2023-03-04T16:35:11;100372.94;;;-4.78;78.32
59168;BME280;44948;55.046;73.266;2023-03-04T16:38:25;100373.75;;;-4.71;78.10
59168;BME280;44948;55.046;73.266;2023-03-04T16:41:31;100354.16;;;-4.75;78.34
59168;BME280;44948;55.046;73.266;2023-03-04T16:44:33;100378.72;;;-4.54;78.10
59168;BME280;44948;55.046;73.266;2023-03-04T16:47:35;100377.81;;;-4.43;77.79
59168;BME280;44948;55.046;73.266;2023-03-04T16:50:43;100370.19;;;-4.53;77.88
59168;BME280;44948;55.046;73.266;2023-03-04T16:53:56;100383.78;;;-4.42;77.61
59168;BME280;44948;55.046;73.266;2023-03-04T16:57:01;100374.34;;;-4.40;77.65
59168;BME280;44948;55.046;73.266;2023-03-04T17:00:04;100390.50;;;-4.29;77.48
59168;BME280;44948;55.046;73.266;2023-03-04T17:03:09;100394.78;;;-4.29;77.38
59168;BME280;44948;55.046;73.266;2023-03-04T17:06:13;100372.63;;;-4.38;77.73
59168;BME280;44948;55.046;73.266;2023-03-04T17:09:15;100389.66;;;-4.29;77.87
59168;BME280;44948;55.046;73.266;2023-03-04T17:12:18;100382.78;;;-4.26;78.28
59168;BME280;44948;55.046;73.266;2023-03-04T17:15:31;100377.59;;;-4.21;78.02
59168;BME280;44948;55.046;73.266;2023-03-04T17:18:43;100370.78;;;-4.21;77.90